sensor_id;sensor_type;location;lat;lon;timestamp;P1;durP1;ratioP1;P2;durP2;ratioP2
70459;SDS011;57920;54.796;9.430;2022-11-02T00:02:16;1.33;;;1.10;;
70459;SDS011;57920;54.796;9.430;2022-11-02T00:04:41;2.63;;;1.47;;
70459;SDS011;57920;54.796;9.430;2022-11-02T00:07:07;2.10;;;1.30;;
70459;SDS011;57920;54.796;9.430;2022-11-02T00:09:33;2.43;;;1.50;;
70459;SDS011;57920;54.796;9.430;2022-11-02T00:11:58;3.17;;;1.70;;
70459;SDS011;57920;54.796;9.430;2022-11-02T00:14:24;2.40;;;1.30;;
70459;SDS011;57920;54.796;9.430;2022-11-02T00:16:49;1.67;;;1.17;;
70459;SDS011;57920;54.796;9.430;2022-11-02T00:19:15;2.57;;;1.50;;
70459;SDS011;57920;54.796;9.430;2022-11-02T00:21:41;2.50;;;1.60;;
70459;SDS011;57920;54.796;9.430;2022-11-02T00:24:07;3.00;;;1.37;;
70459;SDS011;57920;54.796;9.430;2022-11-02T00:26:35;5.47;;;1.53;;
70459;SDS011;57920;54.796;9.430;2022-11-02T00:29:01;1.80;;;1.40;;
70459;SDS011;57920;54.796;9.430;2022-11-02T00:31:29;2.13;;;1.30;;
70459;SDS011;57920;54.796;9.430;2022-11-02T00:33:54;3.63;;;1.27;;
70459;SDS011;57920;54.796;9.430;2022-11-02T00:36:20;4.97;;;1.60;;
70459;SDS011;57920;54.796;9.430;2022-11-02T00:38:48;3.20;;;1.53;;
70459;SDS011;57920;54.796;9.430;2022-11-02T00:41:13;2.93;;;1.23;;
70459;SDS011;57920;54.796;9.430;2022-11-02T00:43:39;3.33;;;1.77;;
70459;SDS011;57920;54.796;9.430;2022-11-02T00:46:04;2.43;;;1.23;;
70459;SDS011;57920;54.796;9.430;2022-11-02T00:48:30;3.00;;;1.30;;
70459;SDS011;57920;54.796;9.430;2022-11-02T00:50:55;2.60;;;1.23;;
70459;SDS011;57920;54.796;9.430;2022-11-02T00:53:21;3.23;;;1.27;;
70459;SDS011;57920;54.796;9.430;2022-11-02T00:55:47;3.17;;;1.53;;
70459;SDS011;57920;54.796;9.430;2022-11-02T00:58:13;3.37;;;1.50;;
70459;SDS011;57920;54.796;9.430;2022-11-02T01:00:38;2.93;;;1.67;;
70459;SDS011;57920;54.796;9.430;2022-11-02T01:03:04;3.23;;;1.50;;
70459;SDS011;57920;54.796;9.430;2022-11-02T01:05:29;3.50;;;1.10;;
70459;SDS011;57920;54.796;9.430;2022-11-02T01:07:55;1.53;;;1.27;;
70459;SDS011;57920;54.796;9.430;2022-11-02T01:10:21;3.73;;;1.47;;
70459;SDS011;57920;54.796;9.430;2022-11-02T01:12:47;1.90;;;1.27;;
70459;SDS011;57920;54.796;9.430;2022-11-02T01:15:13;2.53;;;1.30;;
70459;SDS011;57920;54.796;9.430;2022-11-02T01:17:38;2.20;;;1.10;;
70459;SDS011;57920;54.796;9.430;2022-11-02T01:20:04;2.27;;;0.87;;
70459;SDS011;57920;54.796;9.430;2022-11-02T01:22:30;1.40;;;1.10;;
70459;SDS011;57920;54.796;9.430;2022-11-02T01:24:56;1.97;;;1.13;;
70459;SDS011;57920;54.796;9.430;2022-11-02T01:27:22;3.73;;;1.73;;
70459;SDS011;57920;54.796;9.430;2022-11-02T01:29:47;3.03;;;1.40;;
70459;SDS011;57920;54.796;9.430;2022-11-02T01:32:13;4.63;;;1.50;;
70459;SDS011;57920;54.796;9.430;2022-11-02T01:34:38;2.33;;;1.13;;
70459;SDS011;57920;54.796;9.430;2022-11-02T01:37:04;2.00;;;0.80;;
70459;SDS011;57920;54.796;9.430;2022-11-02T01:39:30;2.50;;;1.30;;
70459;SDS011;57920;54.796;9.430;2022-11-02T01:41:55;5.00;;;1.20;;
70459;SDS011;57920;54.796;9.430;2022-11-02T01:44:25;1.53;;;1.30;;
70459;SDS011;57920;54.796;9.430;2022-11-02T01:47:07;2.80;;;1.30;;
70459;SDS011;57920;54.796;9.430;2022-11-02T01:49:38;3.10;;;1.10;;
70459;SDS011;57920;54.796;9.430;2022-11-02T01:52:11;2.63;;;1.23;;
70459;SDS011;57920;54.796;9.430;2022-11-02T01:54:41;4.03;;;1.60;;
70459;SDS011;57920;54.796;9.430;2022-11-02T01:57:13;3.00;;;1.37;;
70459;SDS011;57920;54.796;9.430;2022-11-02T01:59:44;3.10;;;1.53;;
70459;SDS011;57920;54.796;9.430;2022-11-02T02:02:15;2.80;;;1.37;;
70459;SDS011;57920;54.796;9.430;2022-11-02T02:04:44;3.33;;;1.20;;
70459;SDS011;57920;54.796;9.430;2022-11-02T02:07:25;1.27;;;1.00;;
70459;SDS011;57920;54.796;9.430;2022-11-02T02:09:52;2.90;;;1.40;;
70459;SDS011;57920;54.796;9.430;2022-11-02T02:12:19;1.60;;;1.00;;
70459;SDS011;57920;54.796;9.430;2022-11-02T02:14:45;2.57;;;0.93;;
70459;SDS011;57920;54.796;9.430;2022-11-02T02:19:39;3.70;;;1.43;;
70459;SDS011;57920;54.796;9.430;2022-11-02T02:30:42;1.73;;;0.90;;
70459;SDS011;57920;54.796;9.430;2022-11-02T02:33:45;1.63;;;1.23;;
70459;SDS011;57920;54.796;9.430;2022-11-02T02:36:33;1.03;;;0.70;;
70459;SDS011;57920;54.796;9.430;2022-11-02T02:44:41;2.53;;;1.47;;
70459;SDS011;57920;54.796;9.430;2022-11-02T02:47:12;2.50;;;1.40;;
70459;SDS011;57920;54.796;9.430;2022-11-02T02:49:47;2.67;;;1.10;;
70459;SDS011;57920;54.796;9.430;2022-11-02T02:52:16;1.50;;;1.00;;
70459;SDS011;57920;54.796;9.430;2022-11-02T02:54:44;1.47;;;0.80;;
70459;SDS011;57920;54.796;9.430;2022-11-02T02:57:12;1.83;;;1.20;;
70459;SDS011;57920;54.796;9.430;2022-11-02T02:59:45;3.47;;;1.30;;
70459;SDS011;57920;54.796;9.430;2022-11-02T03:02:17;2.50;;;1.20;;
70459;SDS011;57920;54.796;9.430;2022-11-02T03:04:49;1.77;;;1.23;;
70459;SDS011;57920;54.796;9.430;2022-11-02T03:07:19;2.33;;;1.17;;
70459;SDS011;57920;54.796;9.430;2022-11-02T03:09:50;1.13;;;0.93;;
70459;SDS011;57920;54.796;9.430;2022-11-02T03:12:36;2.40;;;1.03;;
70459;SDS011;57920;54.796;9.430;2022-11-02T03:15:20;1.73;;;1.00;;
70459;SDS011;57920;54.796;9.430;2022-11-02T03:20:47;2.43;;;1.23;;
70459;SDS011;57920;54.796;9.430;2022-11-02T03:28:56;2.73;;;0.87;;
70459;SDS011;57920;54.796;9.430;2022-11-02T03:34:37;2.87;;;1.20;;
70459;SDS011;57920;54.796;9.430;2022-11-02T03:37:30;1.73;;;1.03;;
70459;SDS011;57920;54.796;9.430;2022-11-02T03:40:15;3.57;;;1.10;;
70459;SDS011;57920;54.796;9.430;2022-11-02T03:42:45;2.97;;;1.40;;
70459;SDS011;57920;54.796;9.430;2022-11-02T03:45:20;1.70;;;1.30;;
70459;SDS011;57920;54.796;9.430;2022-11-02T03:47:49;1.77;;;1.07;;
70459;SDS011;57920;54.796;9.430;2022-11-02T03:50:19;2.13;;;1.40;;
70459;SDS011;57920;54.796;9.430;2022-11-02T03:52:47;2.07;;;1.10;;
70459;SDS011;57920;54.796;9.430;2022-11-02T04:56:42;1.47;;;0.80;;
70459;SDS011;57920;54.796;9.430;2022-11-02T04:59:08;0.80;;;0.60;;
70459;SDS011;57920;54.796;9.430;2022-11-02T05:01:34;3.43;;;1.10;;
70459;SDS011;57920;54.796;9.430;2022-11-02T05:04:00;2.67;;;1.00;;
70459;SDS011;57920;54.796;9.430;2022-11-02T05:32:19;4.43;;;1.70;;
70459;SDS011;57920;54.796;9.430;2022-11-02T05:34:45;3.97;;;1.40;;
70459;SDS011;57920;54.796;9.430;2022-11-02T05:37:11;2.27;;;1.10;;
70459;SDS011;57920;54.796;9.430;2022-11-02T05:39:36;4.20;;;1.47;;
70459;SDS011;57920;54.796;9.430;2022-11-02T05:42:02;1.23;;;0.80;;
70459;SDS011;57920;54.796;9.430;2022-11-02T05:44:28;1.83;;;1.10;;
70459;SDS011;57920;54.796;9.430;2022-11-02T05:46:59;1.83;;;0.90;;
70459;SDS011;57920;54.796;9.430;2022-11-02T05:49:28;1.77;;;1.00;;
70459;SDS011;57920;54.796;9.430;2022-11-02T05:51:53;3.97;;;1.30;;
70459;SDS011;57920;54.796;9.430;2022-11-02T05:54:19;1.33;;;0.80;;
70459;SDS011;57920;54.796;9.430;2022-11-02T05:56:45;1.30;;;0.67;;
70459;SDS011;57920;54.796;9.430;2022-11-02T05:59:11;3.03;;;1.10;;
70459;SDS011;57920;54.796;9.430;2022-11-02T06:01:37;1.77;;;1.13;;
70459;SDS011;57920;54.796;9.430;2022-11-02T06:04:03;1.80;;;0.83;;
70459;SDS011;57920;54.796;9.430;2022-11-02T06:06:30;1.67;;;1.00;;
70459;SDS011;57920;54.796;9.430;2022-11-02T06:08:56;2.30;;;1.03;;
70459;SDS011;57920;54.796;9.430;2022-11-02T06:11:22;1.90;;;1.07;;
70459;SDS011;57920;54.796;9.430;2022-11-02T06:13:49;2.77;;;1.03;;
70459;SDS011;57920;54.796;9.430;2022-11-02T06:16:15;1.27;;;0.80;;
70459;SDS011;57920;54.796;9.430;2022-11-02T06:18:42;2.03;;;0.90;;
70459;SDS011;57920;54.796;9.430;2022-11-02T06:21:08;2.90;;;1.30;;
70459;SDS011;57920;54.796;9.430;2022-11-02T06:23:34;1.70;;;0.90;;
70459;SDS011;57920;54.796;9.430;2022-11-02T06:26:00;2.40;;;1.33;;
70459;SDS011;57920;54.796;9.430;2022-11-02T06:28:27;1.20;;;0.90;;
70459;SDS011;57920;54.796;9.430;2022-11-02T06:30:54;1.60;;;0.90;;
70459;SDS011;57920;54.796;9.430;2022-11-02T06:33:21;2.10;;;0.90;;
70459;SDS011;57920;54.796;9.430;2022-11-02T06:35:48;1.60;;;0.70;;
70459;SDS011;57920;54.796;9.430;2022-11-02T06:38:16;0.97;;;0.83;;
70459;SDS011;57920;54.796;9.430;2022-11-02T06:40:51;4.37;;;1.27;;
70459;SDS011;57920;54.796;9.430;2022-11-02T06:43:35;2.17;;;1.20;;
70459;SDS011;57920;54.796;9.430;2022-11-02T06:46:02;2.03;;;1.10;;
70459;SDS011;57920;54.796;9.430;2022-11-02T06:48:41;1.60;;;0.97;;
70459;SDS011;57920;54.796;9.430;2022-11-02T06:51:06;1.90;;;1.20;;
70459;SDS011;57920;54.796;9.430;2022-11-02T06:53:32;2.20;;;1.10;;
70459;SDS011;57920;54.796;9.430;2022-11-02T06:55:58;4.10;;;1.40;;
70459;SDS011;57920;54.796;9.430;2022-11-02T06:58:24;1.97;;;1.13;;
70459;SDS011;57920;54.796;9.430;2022-11-02T07:00:55;2.57;;;1.10;;
70459;SDS011;57920;54.796;9.430;2022-11-02T07:03:22;2.30;;;1.20;;
70459;SDS011;57920;54.796;9.430;2022-11-02T07:05:49;2.57;;;1.13;;
70459;SDS011;57920;54.796;9.430;2022-11-02T07:08:16;2.20;;;1.20;;
70459;SDS011;57920;54.796;9.430;2022-11-02T07:10:41;2.00;;;1.10;;
70459;SDS011;57920;54.796;9.430;2022-11-02T07:13:07;2.27;;;1.00;;
70459;SDS011;57920;54.796;9.430;2022-11-02T07:15:32;2.53;;;1.20;;
70459;SDS011;57920;54.796;9.430;2022-11-02T07:18:13;3.10;;;1.37;;
70459;SDS011;57920;54.796;9.430;2022-11-02T07:20:39;2.43;;;1.10;;
70459;SDS011;57920;54.796;9.430;2022-11-02T07:23:04;2.23;;;1.30;;
70459;SDS011;57920;54.796;9.430;2022-11-02T07:25:30;2.37;;;0.90;;
70459;SDS011;57920;54.796;9.430;2022-11-02T07:27:57;5.23;;;1.40;;
70459;SDS011;57920;54.796;9.430;2022-11-02T07:30:25;2.20;;;1.23;;
70459;SDS011;57920;54.796;9.430;2022-11-02T07:32:51;6.17;;;1.50;;
70459;SDS011;57920;54.796;9.430;2022-11-02T07:35:17;3.27;;;1.20;;
70459;SDS011;57920;54.796;9.430;2022-11-02T07:37:43;1.93;;;1.20;;
70459;SDS011;57920;54.796;9.430;2022-11-02T07:40:09;4.77;;;2.20;;
70459;SDS011;57920;54.796;9.430;2022-11-02T07:42:42;2.90;;;2.17;;
70459;SDS011;57920;54.796;9.430;2022-11-02T07:45:08;9.37;;;3.13;;
70459;SDS011;57920;54.796;9.430;2022-11-02T08:03:49;10.37;;;3.87;;
70459;SDS011;57920;54.796;9.430;2022-11-02T08:06:15;44.57;;;24.00;;
70459;SDS011;57920;54.796;9.430;2022-11-02T08:08:40;252.37;;;154.87;;
70459;SDS011;57920;54.796;9.430;2022-11-02T08:11:06;449.63;;;295.10;;
70459;SDS011;57920;54.796;9.430;2022-11-02T08:13:33;392.20;;;260.67;;
70459;SDS011;57920;54.796;9.430;2022-11-02T08:16:00;278.93;;;163.20;;
70459;SDS011;57920;54.796;9.430;2022-11-02T08:28:01;214.40;;;129.57;;
70459;SDS011;57920;54.796;9.430;2022-11-02T08:30:27;228.67;;;133.63;;
70459;SDS011;57920;54.796;9.430;2022-11-02T08:32:55;192.57;;;119.97;;
70459;SDS011;57920;54.796;9.430;2022-11-02T08:35:31;157.40;;;99.87;;
70459;SDS011;57920;54.796;9.430;2022-11-02T08:37:57;175.13;;;111.27;;
70459;SDS011;57920;54.796;9.430;2022-11-02T08:40:24;172.17;;;106.07;;
70459;SDS011;57920;54.796;9.430;2022-11-02T08:43:01;175.70;;;110.07;;
70459;SDS011;57920;54.796;9.430;2022-11-02T08:45:29;171.23;;;107.17;;
70459;SDS011;57920;54.796;9.430;2022-11-02T09:00:54;171.20;;;99.03;;
70459;SDS011;57920;54.796;9.430;2022-11-02T09:03:20;192.77;;;115.57;;
70459;SDS011;57920;54.796;9.430;2022-11-02T09:05:48;187.37;;;111.40;;
70459;SDS011;57920;54.796;9.430;2022-11-02T09:08:15;166.37;;;106.87;;
70459;SDS011;57920;54.796;9.430;2022-11-02T09:10:43;170.70;;;108.10;;
70459;SDS011;57920;54.796;9.430;2022-11-02T09:13:12;138.20;;;87.20;;
70459;SDS011;57920;54.796;9.430;2022-11-02T09:15:38;150.47;;;98.10;;
70459;SDS011;57920;54.796;9.430;2022-11-02T09:18:09;148.03;;;98.80;;
70459;SDS011;57920;54.796;9.430;2022-11-02T09:20:35;145.00;;;92.60;;
70459;SDS011;57920;54.796;9.430;2022-11-02T09:23:01;126.00;;;85.13;;
70459;SDS011;57920;54.796;9.430;2022-11-02T09:25:26;127.10;;;83.43;;
70459;SDS011;57920;54.796;9.430;2022-11-02T09:27:53;116.20;;;80.70;;
70459;SDS011;57920;54.796;9.430;2022-11-02T09:30:20;103.63;;;63.33;;
70459;SDS011;57920;54.796;9.430;2022-11-02T09:32:59;116.70;;;73.90;;
70459;SDS011;57920;54.796;9.430;2022-11-02T09:35:27;115.20;;;74.87;;
70459;SDS011;57920;54.796;9.430;2022-11-02T09:37:55;109.47;;;73.23;;
70459;SDS011;57920;54.796;9.430;2022-11-02T09:40:21;103.00;;;70.47;;
70459;SDS011;57920;54.796;9.430;2022-11-02T09:45:23;87.53;;;54.80;;
70459;SDS011;57920;54.796;9.430;2022-11-02T09:48:02;92.77;;;62.83;;
70459;SDS011;57920;54.796;9.430;2022-11-02T09:50:39;85.30;;;61.23;;
70459;SDS011;57920;54.796;9.430;2022-11-02T09:53:09;77.13;;;51.83;;
70459;SDS011;57920;54.796;9.430;2022-11-02T09:55:41;80.50;;;57.50;;
70459;SDS011;57920;54.796;9.430;2022-11-02T09:58:17;82.03;;;55.70;;
70459;SDS011;57920;54.796;9.430;2022-11-02T10:00:47;87.07;;;57.80;;
70459;SDS011;57920;54.796;9.430;2022-11-02T10:14:19;63.47;;;42.37;;
70459;SDS011;57920;54.796;9.430;2022-11-02T10:17:03;76.33;;;50.30;;
70459;SDS011;57920;54.796;9.430;2022-11-02T10:19:49;58.70;;;41.67;;
70459;SDS011;57920;54.796;9.430;2022-11-02T10:22:19;70.03;;;45.13;;
70459;SDS011;57920;54.796;9.430;2022-11-02T10:24:49;64.47;;;43.83;;
70459;SDS011;57920;54.796;9.430;2022-11-02T10:27:21;67.43;;;44.50;;
70459;SDS011;57920;54.796;9.430;2022-11-02T10:32:38;43.47;;;32.60;;
70459;SDS011;57920;54.796;9.430;2022-11-02T10:35:11;58.10;;;38.73;;
70459;SDS011;57920;54.796;9.430;2022-11-02T10:46:45;195.33;;;118.20;;
70459;SDS011;57920;54.796;9.430;2022-11-02T10:52:43;101.03;;;66.20;;
70459;SDS011;57920;54.796;9.430;2022-11-02T10:55:20;122.43;;;72.80;;
70459;SDS011;57920;54.796;9.430;2022-11-02T10:58:05;89.73;;;58.37;;
70459;SDS011;57920;54.796;9.430;2022-11-02T11:00:41;109.70;;;72.60;;
70459;SDS011;57920;54.796;9.430;2022-11-02T11:03:09;115.70;;;67.07;;
70459;SDS011;57920;54.796;9.430;2022-11-02T11:13:39;74.30;;;48.97;;
70459;SDS011;57920;54.796;9.430;2022-11-02T11:16:10;97.33;;;60.00;;
70459;SDS011;57920;54.796;9.430;2022-11-02T11:21:43;64.67;;;43.67;;
70459;SDS011;57920;54.796;9.430;2022-11-02T11:24:22;75.13;;;49.33;;
70459;SDS011;57920;54.796;9.430;2022-11-02T11:27:00;80.67;;;48.47;;
70459;SDS011;57920;54.796;9.430;2022-11-02T11:29:38;70.63;;;36.67;;
70459;SDS011;57920;54.796;9.430;2022-11-02T11:32:16;60.73;;;36.07;;
70459;SDS011;57920;54.796;9.430;2022-11-02T11:34:49;76.73;;;44.30;;
70459;SDS011;57920;54.796;9.430;2022-11-02T11:37:19;68.63;;;41.40;;
70459;SDS011;57920;54.796;9.430;2022-11-02T11:39:45;70.87;;;43.27;;
70459;SDS011;57920;54.796;9.430;2022-11-02T11:42:19;62.30;;;40.67;;
70459;SDS011;57920;54.796;9.430;2022-11-02T11:44:58;65.00;;;40.20;;
70459;SDS011;57920;54.796;9.430;2022-11-02T11:47:33;64.83;;;41.30;;
70459;SDS011;57920;54.796;9.430;2022-11-02T11:50:04;62.87;;;33.70;;
70459;SDS011;57920;54.796;9.430;2022-11-02T11:52:36;61.27;;;37.57;;
70459;SDS011;57920;54.796;9.430;2022-11-02T11:55:18;54.70;;;36.13;;
70459;SDS011;57920;54.796;9.430;2022-11-02T12:00:31;55.83;;;30.47;;
70459;SDS011;57920;54.796;9.430;2022-11-02T12:03:04;54.27;;;32.20;;
70459;SDS011;57920;54.796;9.430;2022-11-02T12:05:33;46.67;;;26.90;;
70459;SDS011;57920;54.796;9.430;2022-11-02T12:08:42;42.90;;;26.20;;
70459;SDS011;57920;54.796;9.430;2022-11-02T12:11:25;46.10;;;27.37;;
70459;SDS011;57920;54.796;9.430;2022-11-02T12:13:59;45.37;;;27.60;;
70459;SDS011;57920;54.796;9.430;2022-11-02T12:16:54;40.83;;;26.87;;
70459;SDS011;57920;54.796;9.430;2022-11-02T12:25:25;43.00;;;24.10;;
70459;SDS011;57920;54.796;9.430;2022-11-02T12:28:21;31.47;;;21.87;;
70459;SDS011;57920;54.796;9.430;2022-11-02T12:34:00;51.63;;;28.50;;
70459;SDS011;57920;54.796;9.430;2022-11-02T12:36:44;66.50;;;34.30;;
70459;SDS011;57920;54.796;9.430;2022-11-02T12:39:43;49.50;;;27.47;;
70459;SDS011;57920;54.796;9.430;2022-11-02T12:42:27;47.17;;;23.93;;
70459;SDS011;57920;54.796;9.430;2022-11-02T12:45:09;57.00;;;28.63;;
70459;SDS011;57920;54.796;9.430;2022-11-02T12:48:05;51.93;;;26.33;;
70459;SDS011;57920;54.796;9.430;2022-11-02T12:51:16;53.00;;;29.83;;
70459;SDS011;57920;54.796;9.430;2022-11-02T12:59:20;30.93;;;18.47;;
70459;SDS011;57920;54.796;9.430;2022-11-02T13:01:46;38.90;;;23.10;;
70459;SDS011;57920;54.796;9.430;2022-11-02T13:06:51;23.20;;;12.87;;
70459;SDS011;57920;54.796;9.430;2022-11-02T13:12:19;24.90;;;12.20;;
70459;SDS011;57920;54.796;9.430;2022-11-02T13:14:48;35.23;;;14.30;;
70459;SDS011;57920;54.796;9.430;2022-11-02T13:20:44;37.50;;;14.53;;
70459;SDS011;57920;54.796;9.430;2022-11-02T13:23:35;52.83;;;22.77;;
70459;SDS011;57920;54.796;9.430;2022-11-02T13:26:26;72.93;;;29.27;;
70459;SDS011;57920;54.796;9.430;2022-11-02T13:31:40;105.23;;;39.97;;
70459;SDS011;57920;54.796;9.430;2022-11-02T13:34:25;79.87;;;34.00;;
70459;SDS011;57920;54.796;9.430;2022-11-02T13:37:02;78.90;;;29.23;;
70459;SDS011;57920;54.796;9.430;2022-11-02T13:39:35;55.67;;;25.93;;
70459;SDS011;57920;54.796;9.430;2022-11-02T13:42:07;54.17;;;25.00;;
70459;SDS011;57920;54.796;9.430;2022-11-02T13:44:58;54.87;;;23.80;;
70459;SDS011;57920;54.796;9.430;2022-11-02T13:48:30;47.00;;;21.33;;
70459;SDS011;57920;54.796;9.430;2022-11-02T13:51:03;48.70;;;20.33;;
70459;SDS011;57920;54.796;9.430;2022-11-02T13:54:03;56.10;;;20.97;;
70459;SDS011;57920;54.796;9.430;2022-11-02T13:56:35;59.47;;;22.47;;
70459;SDS011;57920;54.796;9.430;2022-11-02T13:59:05;49.73;;;21.43;;
70459;SDS011;57920;54.796;9.430;2022-11-02T14:01:34;53.27;;;22.23;;
70459;SDS011;57920;54.796;9.430;2022-11-02T14:04:04;54.43;;;21.47;;
70459;SDS011;57920;54.796;9.430;2022-11-02T14:06:41;47.13;;;19.33;;
70459;SDS011;57920;54.796;9.430;2022-11-02T14:09:28;47.27;;;16.77;;
70459;SDS011;57920;54.796;9.430;2022-11-02T14:31:26;29.97;;;12.60;;
70459;SDS011;57920;54.796;9.430;2022-11-02T14:33:47;25.87;;;11.83;;
70459;SDS011;57920;54.796;9.430;2022-11-02T14:44:29;24.43;;;10.53;;
70459;SDS011;57920;54.796;9.430;2022-11-02T14:47:06;19.77;;;10.10;;
70459;SDS011;57920;54.796;9.430;2022-11-02T14:49:52;27.73;;;11.77;;
70459;SDS011;57920;54.796;9.430;2022-11-02T14:52:28;20.57;;;11.60;;
70459;SDS011;57920;54.796;9.430;2022-11-02T14:57:40;23.87;;;12.13;;
70459;SDS011;57920;54.796;9.430;2022-11-02T15:00:20;14.20;;;9.40;;
70459;SDS011;57920;54.796;9.430;2022-11-02T15:02:59;20.30;;;9.17;;
70459;SDS011;57920;54.796;9.430;2022-11-02T15:05:27;22.03;;;9.97;;
70459;SDS011;57920;54.796;9.430;2022-11-02T15:07:55;15.33;;;8.33;;
70459;SDS011;57920;54.796;9.430;2022-11-02T15:16:28;18.40;;;10.00;;
70459;SDS011;57920;54.796;9.430;2022-11-02T15:18:35;18.63;;;9.30;;
70459;SDS011;57920;54.796;9.430;2022-11-02T15:26:29;14.20;;;6.73;;
70459;SDS011;57920;54.796;9.430;2022-11-02T15:29:01;15.67;;;8.13;;
70459;SDS011;57920;54.796;9.430;2022-11-02T15:31:29;16.80;;;8.43;;
70459;SDS011;57920;54.796;9.430;2022-11-02T15:34:00;11.57;;;7.67;;
70459;SDS011;57920;54.796;9.430;2022-11-02T15:38:57;15.17;;;8.00;;
70459;SDS011;57920;54.796;9.430;2022-11-02T15:41:30;11.70;;;6.33;;
70459;SDS011;57920;54.796;9.430;2022-11-02T15:54:52;13.10;;;6.63;;
70459;SDS011;57920;54.796;9.430;2022-11-02T16:00:38;8.70;;;5.13;;
70459;SDS011;57920;54.796;9.430;2022-11-02T16:03:04;9.33;;;4.73;;
70459;SDS011;57920;54.796;9.430;2022-11-02T16:05:32;9.63;;;6.20;;
70459;SDS011;57920;54.796;9.430;2022-11-02T16:08:04;9.17;;;6.10;;
70459;SDS011;57920;54.796;9.430;2022-11-02T16:10:48;9.57;;;5.50;;
70459;SDS011;57920;54.796;9.430;2022-11-02T16:13:15;10.13;;;5.50;;
70459;SDS011;57920;54.796;9.430;2022-11-02T16:15:48;9.67;;;4.53;;
70459;SDS011;57920;54.796;9.430;2022-11-02T16:18:24;9.03;;;4.63;;
70459;SDS011;57920;54.796;9.430;2022-11-02T16:20:55;11.60;;;5.53;;
70459;SDS011;57920;54.796;9.430;2022-11-02T16:23:26;10.13;;;5.50;;
70459;SDS011;57920;54.796;9.430;2022-11-02T16:25:54;7.80;;;5.00;;
70459;SDS011;57920;54.796;9.430;2022-11-02T16:28:25;8.33;;;5.57;;
70459;SDS011;57920;54.796;9.430;2022-11-02T16:36:04;8.40;;;4.60;;
70459;SDS011;57920;54.796;9.430;2022-11-02T16:38:37;7.37;;;4.10;;
70459;SDS011;57920;54.796;9.430;2022-11-02T16:41:09;9.07;;;5.27;;
70459;SDS011;57920;54.796;9.430;2022-11-02T16:43:37;12.47;;;4.37;;
70459;SDS011;57920;54.796;9.430;2022-11-02T16:46:07;6.67;;;4.70;;
70459;SDS011;57920;54.796;9.430;2022-11-02T16:48:33;7.53;;;4.97;;
70459;SDS011;57920;54.796;9.430;2022-11-02T16:53:25;7.10;;;4.40;;
70459;SDS011;57920;54.796;9.430;2022-11-02T16:55:53;8.73;;;4.80;;
70459;SDS011;57920;54.796;9.430;2022-11-02T16:58:26;9.37;;;4.30;;
70459;SDS011;57920;54.796;9.430;2022-11-02T17:00:59;7.37;;;4.20;;
70459;SDS011;57920;54.796;9.430;2022-11-02T17:03:29;8.13;;;4.70;;
70459;SDS011;57920;54.796;9.430;2022-11-02T17:06:01;8.33;;;4.20;;
70459;SDS011;57920;54.796;9.430;2022-11-02T17:08:30;9.20;;;4.40;;
70459;SDS011;57920;54.796;9.430;2022-11-02T17:10:59;6.73;;;4.03;;
70459;SDS011;57920;54.796;9.430;2022-11-02T17:13:30;11.17;;;4.27;;
70459;SDS011;57920;54.796;9.430;2022-11-02T17:16:05;7.73;;;4.87;;
70459;SDS011;57920;54.796;9.430;2022-11-02T17:18:34;9.83;;;4.23;;
70459;SDS011;57920;54.796;9.430;2022-11-02T17:23:39;7.27;;;4.40;;
70459;SDS011;57920;54.796;9.430;2022-11-02T17:33:49;8.13;;;4.53;;
70459;SDS011;57920;54.796;9.430;2022-11-02T17:36:16;8.70;;;4.63;;
70459;SDS011;57920;54.796;9.430;2022-11-02T17:38:42;8.03;;;4.17;;
70459;SDS011;57920;54.796;9.430;2022-11-02T17:41:09;6.00;;;4.17;;
70459;SDS011;57920;54.796;9.430;2022-11-02T17:43:56;6.63;;;3.73;;
70459;SDS011;57920;54.796;9.430;2022-11-02T17:46:22;6.00;;;3.60;;
70459;SDS011;57920;54.796;9.430;2022-11-02T17:48:48;6.57;;;3.83;;
70459;SDS011;57920;54.796;9.430;2022-11-02T17:51:14;7.23;;;3.83;;
70459;SDS011;57920;54.796;9.430;2022-11-02T17:53:40;6.73;;;4.43;;
70459;SDS011;57920;54.796;9.430;2022-11-02T17:56:06;6.87;;;4.13;;
70459;SDS011;57920;54.796;9.430;2022-11-02T17:58:34;5.50;;;3.87;;
70459;SDS011;57920;54.796;9.430;2022-11-02T18:00:59;7.97;;;3.90;;
70459;SDS011;57920;54.796;9.430;2022-11-02T18:03:26;5.60;;;3.80;;
70459;SDS011;57920;54.796;9.430;2022-11-02T18:05:52;7.43;;;3.70;;
70459;SDS011;57920;54.796;9.430;2022-11-02T18:08:18;7.23;;;3.67;;
70459;SDS011;57920;54.796;9.430;2022-11-02T18:10:45;7.43;;;4.50;;
70459;SDS011;57920;54.796;9.430;2022-11-02T18:13:13;10.27;;;4.37;;
70459;SDS011;57920;54.796;9.430;2022-11-02T18:15:41;5.43;;;3.50;;
70459;SDS011;57920;54.796;9.430;2022-11-02T18:18:07;5.00;;;3.80;;
70459;SDS011;57920;54.796;9.430;2022-11-02T18:20:33;5.63;;;3.17;;
70459;SDS011;57920;54.796;9.430;2022-11-02T18:22:59;6.43;;;3.73;;
70459;SDS011;57920;54.796;9.430;2022-11-02T18:25:26;7.60;;;3.60;;
70459;SDS011;57920;54.796;9.430;2022-11-02T18:27:55;5.83;;;3.70;;
70459;SDS011;57920;54.796;9.430;2022-11-02T18:30:22;4.57;;;3.57;;
70459;SDS011;57920;54.796;9.430;2022-11-02T18:32:50;6.93;;;3.17;;
70459;SDS011;57920;54.796;9.430;2022-11-02T18:35:17;4.00;;;3.30;;
70459;SDS011;57920;54.796;9.430;2022-11-02T18:37:44;6.00;;;3.47;;
70459;SDS011;57920;54.796;9.430;2022-11-02T18:40:11;4.80;;;3.43;;
70459;SDS011;57920;54.796;9.430;2022-11-02T18:42:38;8.43;;;3.70;;
70459;SDS011;57920;54.796;9.430;2022-11-02T18:45:06;5.13;;;2.80;;
70459;SDS011;57920;54.796;9.430;2022-11-02T18:47:33;5.80;;;3.73;;
70459;SDS011;57920;54.796;9.430;2022-11-02T18:49:59;6.07;;;3.63;;
70459;SDS011;57920;54.796;9.430;2022-11-02T18:52:25;7.87;;;3.80;;
70459;SDS011;57920;54.796;9.430;2022-11-02T18:54:51;4.60;;;3.03;;
70459;SDS011;57920;54.796;9.430;2022-11-02T18:57:17;5.43;;;2.73;;
70459;SDS011;57920;54.796;9.430;2022-11-02T18:59:43;5.70;;;3.10;;
70459;SDS011;57920;54.796;9.430;2022-11-02T19:02:09;6.13;;;2.87;;
70459;SDS011;57920;54.796;9.430;2022-11-02T19:04:35;5.03;;;2.80;;
70459;SDS011;57920;54.796;9.430;2022-11-02T19:07:01;5.60;;;3.30;;
70459;SDS011;57920;54.796;9.430;2022-11-02T19:09:45;5.87;;;3.17;;
70459;SDS011;57920;54.796;9.430;2022-11-02T19:12:12;8.80;;;3.07;;
70459;SDS011;57920;54.796;9.430;2022-11-02T19:14:44;4.00;;;2.87;;
70459;SDS011;57920;54.796;9.430;2022-11-02T19:17:11;5.43;;;3.67;;
70459;SDS011;57920;54.796;9.430;2022-11-02T19:19:38;3.13;;;2.83;;
70459;SDS011;57920;54.796;9.430;2022-11-02T19:22:05;6.17;;;2.43;;
70459;SDS011;57920;54.796;9.430;2022-11-02T19:24:31;4.73;;;2.60;;
70459;SDS011;57920;54.796;9.430;2022-11-02T19:26:57;4.27;;;2.17;;
70459;SDS011;57920;54.796;9.430;2022-11-02T19:29:23;3.90;;;3.23;;
70459;SDS011;57920;54.796;9.430;2022-11-02T19:31:49;5.17;;;2.93;;
70459;SDS011;57920;54.796;9.430;2022-11-02T19:34:14;5.50;;;3.27;;
70459;SDS011;57920;54.796;9.430;2022-11-02T19:36:40;7.07;;;3.23;;
70459;SDS011;57920;54.796;9.430;2022-11-02T19:39:06;4.97;;;2.90;;
70459;SDS011;57920;54.796;9.430;2022-11-02T19:41:33;5.07;;;3.13;;
70459;SDS011;57920;54.796;9.430;2022-11-02T19:44:00;3.93;;;2.23;;
70459;SDS011;57920;54.796;9.430;2022-11-02T19:46:26;5.40;;;3.00;;
70459;SDS011;57920;54.796;9.430;2022-11-02T19:48:52;4.03;;;2.90;;
70459;SDS011;57920;54.796;9.430;2022-11-02T19:51:20;7.77;;;3.47;;
70459;SDS011;57920;54.796;9.430;2022-11-02T19:53:50;6.70;;;2.80;;
70459;SDS011;57920;54.796;9.430;2022-11-02T19:56:18;4.63;;;2.77;;